Latest Weather Observations for Derby

IDW60801

Issued at 9:35 pm WST Monday 24 November 2014 (issued every 30 minutes, with the page automatically refreshed every 10 minutes)

About weather observations | Map of weather stations | Latest weather observations for WA | Other Formats
Station Details ID: 003032 Name: DERBY AERO Lat: -17.37 Lon: 123.66 Height: 6.2 m
Data from the previous 72 hours. | See also: Recent months at Derby
Date/Time
WST
Temp
°C
App
Temp
°C
Dew
Point
Rel
Hum
%
Delta-T
°C
Wind Press
QNH
hPa
Press
MSL
hPa
Rain
since 9 am
mm
Dir
 
Spd
km/h
Gust
km/h
Spd
kts
Gust
kts
24/09:30pm 31.1 34.3 23.0 62 5.6 WNW 11 13 6 7 1008.4 1008.4 0.0
24/09:00pm 31.4 33.5 22.4 59 6.1 NW 15 17 8 9 1008.3 1008.3 0.0
24/08:30pm 31.9 33.6 22.3 56 6.5 WNW 17 20 9 11 1008.1 1008.1 0.0
24/08:00pm 31.8 34.1 22.8 59 6.2 NW 15 19 8 10 1007.8 1007.8 0.0
24/07:30pm 31.3 34.0 23.4 63 5.5 WNW 15 19 8 10 1007.4 1007.3 0.0
24/07:00pm 31.6 33.8 23.2 61 5.8 NW 17 20 9 11 1007.0 1006.9 0.0
24/06:30pm 31.5 33.6 23.1 61 5.8 WNW 17 20 9 11 1006.7 1006.6 0.0
24/06:00pm 32.1 33.1 22.2 56 6.8 NW 20 28 11 15 1006.3 1006.2 0.0
24/05:30pm 33.0 33.9 25.3 64 5.5 NW 30 37 16 20 1006.1 1006.0 0.0
24/05:00pm 33.1 34.0 24.6 61 6.0 NNW 28 33 15 18 1006.0 1005.9 0.0
24/04:30pm 33.1 33.2 24.6 61 6.0 NNW 32 37 17 20 1005.8 1005.7 0.0
24/04:00pm 33.8 32.3 23.5 55 7.2 NNW 37 43 20 23 1005.7 1005.6 0.0
24/03:30pm 35.9 34.0 22.1 44 9.5 NNW 35 43 19 23 1005.2 1005.1 0.0
24/03:00pm 37.0 32.6 18.5 33 12.2 NNW 39 46 21 25 1005.5 1005.4 0.0
24/02:30pm 37.3 34.7 20.6 37 11.3 NW 35 44 19 24 1005.7 1005.6 0.0
24/02:00pm 39.2 36.2 16.8 27 14.5 NW 28 33 15 18 1005.9 1005.8 0.0
24/01:30pm 40.1 37.9 16.9 25 15.1 NW 24 32 13 17 1006.4 1006.3 0.0
24/01:00pm 39.2 37.5 16.2 26 14.8 NNW 20 28 11 15 1007.1 1007.0 0.0
24/12:30pm 39.7 38.6 15.3 23 15.5 W 15 22 8 12 1007.5 1007.4 0.0
24/12:00pm 38.7 37.9 15.1 24 14.9 WSW 13 28 7 15 1008.2 1008.2 0.0
24/11:30am 38.7 37.5 15.1 24 14.9 W 15 22 8 12 1008.7 1008.7 0.0
24/11:00am 38.7 37.2 16.3 26 14.4 W 19 24 10 13 1009.3 1009.3 0.0
24/10:30am 37.3 36.4 16.8 29 13.2 WNW 17 22 9 12 1009.7 1009.7 0.0
24/10:00am 36.9 36.6 15.4 28 13.6 WSW 11 22 6 12 1010.2 1010.2 0.0
24/09:30am 35.8 35.9 17.5 34 11.8 W 13 19 7 10 1010.5 1010.5 0.0
24/09:00am 35.2 38.0 21.5 45 9.3 W 9 15 5 8 1010.7 1010.7 0.0
24/08:30am 34.6 36.3 19.4 40 10.0 WNW 9 17 5 9 1010.9 1010.9 0.0
24/08:00am 33.0 36.3 21.8 51 7.6 NW 7 15 4 8 1011.0 1011.0 0.0
24/07:30am 31.7 35.1 22.7 59 6.2 NW 9 15 5 8 1010.9 1010.9 0.0
24/07:00am 30.6 33.6 22.7 62 5.4 NW 11 13 6 7 1010.8 1010.8 0.0
24/06:30am 30.2 34.1 22.9 65 5.0 NNW 7 9 4 5 1010.5 1010.5 0.0
24/06:00am 29.1 33.0 22.6 68 4.4 NNW 6 7 3 4 1010.2 1010.2 0.0
24/05:30am 28.1 32.0 23.0 74 3.5 N 7 11 4 6 1009.8 1009.8 0.0
24/05:00am 28.3 32.1 23.4 75 3.4 N 9 11 5 6 1009.6 1009.6 0.0
24/04:30am 28.3 32.0 23.2 74 3.5 N 9 9 5 5 1009.4 1009.4 0.0
24/04:00am 28.4 31.8 23.3 74 3.5 N 11 13 6 7 1009.1 1009.1 0.0
24/03:30am 28.4 32.0 23.1 73 3.6 N 9 11 5 6 1009.0 1009.0 0.0
24/03:00am 28.3 31.9 23.0 73 3.6 N 9 11 5 6 1008.9 1008.9 0.0
24/02:30am 28.6 31.8 23.1 72 3.8 N 11 13 6 7 1009.2 1009.2 0.0
24/02:00am 28.4 31.5 22.2 69 4.2 NNE 9 11 5 6 1009.3 1009.3 0.0
24/01:30am 28.6 31.8 20.6 62 5.3 N 4 9 2 5 1009.4 1009.4 0.0
24/01:00am 29.0 31.1 19.3 55 6.3 N 7 9 4 5 1009.4 1009.4 0.0
24/12:30am 29.0 30.0 17.8 50 7.1 N 9 11 5 6 1009.4 1009.4 0.0
24/12:00am 29.4 30.6 18.2 51 7.2 NNE 9 11 5 6 1009.7 1009.7 0.0
 
Date/Time
WST
Temp
°C
App
Temp
°C
Dew
Point
Rel
Hum
%
Delta-T
°C
Wind Press
QNH
hPa
Press
MSL
hPa
Rain
since 9 am
mm
Dir
 
Spd
km/h
Gust
km/h
Spd
kts
Gust
kts
23/11:30pm 29.8 32.3 17.3 47 7.9 CALM 0 6 0 3 1009.8 1009.8 0.0
23/11:00pm 30.2 30.8 16.9 44 8.4 WSW 9 13 5 7 1009.9 1009.9 0.0
23/10:30pm 31.3 32.3 16.8 41 9.1 W 7 9 4 5 1010.1 1010.1 0.0
23/10:00pm 31.9 32.7 18.1 43 8.9 WSW 11 17 6 9 1010.0 1010.0 0.0
23/09:30pm 32.6 32.2 18.0 41 9.4 WSW 17 22 9 12 1009.7 1009.7 0.0
23/09:00pm 32.6 33.1 18.4 43 9.2 WSW 13 15 7 8 1009.3 1009.3 0.0
23/08:30pm 32.7 34.7 21.5 51 7.6 W 13 15 7 8 1008.7 1008.7 0.0
23/08:00pm 32.9 35.3 23.0 56 6.8 WNW 15 19 8 10 1008.3 1008.3 0.0
23/07:30pm 33.1 35.6 24.8 61 5.9 NW 20 24 11 13 1007.8 1007.8 0.0
23/07:00pm 32.8 34.1 25.3 64 5.3 NNW 28 33 15 18 1007.2 1007.1 0.0
23/06:30pm 32.8 33.1 24.8 62 5.6 NNW 32 39 17 21 1006.7 1006.6 0.0
23/06:00pm 32.9 33.0 24.6 61 5.8 NNW 32 39 17 21 1006.3 1006.2 0.0
23/05:30pm 33.7 33.3 23.7 56 7.0 NNW 32 37 17 20 1006.0 1005.9 0.0
23/05:00pm 34.5 33.4 22.9 51 8.0 NNW 33 39 18 21 1005.5 1005.4 0.0
23/04:30pm 35.7 34.5 22.3 46 9.2 NNW 32 39 17 21 1005.3 1005.2 0.0
23/04:00pm 37.5 35.2 19.4 34 12.1 NNW 30 33 16 18 1005.1 1005.0 0.0
23/03:30pm 38.0 35.2 17.4 29 13.4 NNW 28 33 15 18 1005.4 1005.3 0.0
23/03:00pm 38.2 35.4 18.1 30 13.2 NNW 30 39 16 21 1005.8 1005.7 0.0
23/02:30pm 39.6 37.9 17.1 26 14.6 NW 22 30 12 16 1006.0 1005.9 0.0
23/02:00pm 38.8 37.6 17.5 28 13.9 NW 20 28 11 15 1006.5 1006.4 0.0
23/01:30pm 38.6 37.3 16.8 27 14.1 NW 19 30 10 16 1006.7 1006.6 0.0
23/01:00pm 39.2 38.1 17.3 27 14.3 NNW 19 28 10 15 1007.2 1007.1 0.0
23/12:30pm 38.2 36.4 15.9 26 14.2 NW 20 28 11 15 1007.8 1007.8 0.0
23/12:00pm 38.3 35.6 13.5 23 15.3 NNW 20 28 11 15 1008.4 1008.4 0.0
23/11:30am 37.5 33.7 9.2 18 16.3 NNW 19 26 10 14 1008.8 1008.8 0.0
23/11:00am 37.3 33.7 10.6 20 15.8 NW 20 28 11 15 1009.4 1009.4 0.0
23/10:30am 37.2 36.9 19.2 35 11.9 NW 19 26 10 14 1009.9 1009.9 0.0
23/10:00am 35.1 35.1 18.2 36 11.0 NW 15 22 8 12 1010.3 1010.3 0.0
23/09:30am 34.2 35.2 20.2 43 9.3 NW 15 24 8 13 1010.7 1010.7 0.0
23/09:00am 33.7 35.5 21.2 48 8.4 NW 13 20 7 11 1010.8 1010.8 0.0
23/08:30am 32.4 34.9 22.5 56 6.8 NW 13 19 7 10 1011.0 1011.0 0.0
23/08:00am 31.9 35.1 25.0 67 4.9 NW 17 20 9 11 1010.9 1010.9 0.0
23/07:30am 30.9 35.2 25.5 73 3.8 NW 13 19 7 10 1010.9 1010.9 0.0
23/07:00am 30.3 34.8 25.8 77 3.2 WNW 13 17 7 9 1011.0 1011.0 0.0
23/06:30am 29.8 35.4 25.8 79 2.8 WNW 7 11 4 6 1010.7 1010.7 0.0
23/06:00am 29.3 34.4 25.5 80 2.7 W 9 11 5 6 1010.3 1010.3 0.0
23/05:30am 28.5 33.4 24.7 80 2.7 NW 7 9 4 5 1009.9 1009.9 0.0
23/05:00am 28.6 33.0 25.0 81 2.5 NW 11 15 6 8 1009.6 1009.6 0.0
23/04:30am 28.5 32.8 24.9 81 2.5 NW 11 13 6 7 1009.5 1009.5 0.0
23/04:00am 28.7 32.6 24.9 80 2.7 NNW 13 17 7 9 1009.1 1009.1 0.0
23/03:30am 28.7 31.6 24.5 78 2.9 NNW 17 19 9 10 1009.0 1009.0 0.0
23/03:00am 28.9 31.8 24.5 77 3.1 NNW 17 19 9 10 1009.0 1009.0 0.0
23/02:30am 28.8 32.2 24.6 78 2.9 N 15 19 8 10 1009.0 1009.0 0.0
23/02:00am 28.9 32.3 24.7 78 2.9 N 15 19 8 10 1009.1 1009.1 0.0
23/01:30am 29.0 32.0 25.2 80 2.7 N 19 24 10 13 1009.3 1009.3 0.0
23/01:00am 29.2 32.6 24.7 77 3.1 NNE 15 24 8 13 1009.7 1009.7 0.0
23/12:30am 28.9 32.0 24.2 76 3.3 N 15 19 8 10 1009.3 1009.3 0.0
23/12:00am 29.0 32.3 23.9 74 3.5 NNE 13 17 7 9 1009.9 1009.9 0.0
 
Date/Time
WST
Temp
°C
App
Temp
°C
Dew
Point
Rel
Hum
%
Delta-T
°C
Wind Press
QNH
hPa
Press
MSL
hPa
Rain
since 9 am
mm
Dir
 
Spd
km/h
Gust
km/h
Spd
kts
Gust
kts
22/11:30pm 29.3 33.2 24.2 74 3.5 NNE 11 13 6 7 1009.8 1009.8 0.0
22/11:00pm 30.3 31.6 20.2 54 6.7 WNW 13 17 7 9 1009.5 1009.5 0.0
22/10:30pm 30.7 33.9 22.3 61 5.7 NNW 9 13 5 7 1009.7 1009.7 0.0
22/10:00pm 30.6 34.6 23.8 67 4.7 NNW 9 11 5 6 1009.5 1009.5 0.0
22/09:30pm 31.1 36.0 25.2 71 4.2 N 9 9 5 5 1009.4 1009.4 0.0
22/09:00pm 31.4 36.3 25.3 70 4.3 N 9 11 5 6 1009.2 1009.2 0.0
22/08:30pm 31.9 37.5 25.7 69 4.4 NNW 7 9 4 5 1008.9 1008.9 0.0
22/08:00pm 32.1 37.0 25.9 70 4.4 NNW 11 13 6 7 1008.6 1008.6 0.0
22/07:30pm 32.0 36.4 25.6 69 4.5 N 13 17 7 9 1008.3 1008.3 0.0
22/07:00pm 32.4 35.4 25.2 66 5.1 NNW 19 26 10 14 1007.7 1007.7 0.0
22/06:30pm 33.1 35.6 24.8 61 5.9 NNW 20 24 11 13 1007.1 1007.0 0.0
22/06:00pm 33.3 35.8 24.5 60 6.2 NW 19 22 10 12 1007.0 1006.9 0.0
22/05:30pm 33.6 35.4 24.8 60 6.2 NW 24 28 13 15 1006.7 1006.6 0.0
22/05:00pm 32.8 33.7 25.3 64 5.3 WNW 30 39 16 21 1006.5 1006.4 0.0
22/04:30pm 33.9 32.9 22.7 52 7.7 NNW 32 39 17 21 1006.3 1006.2 0.0
22/04:00pm 34.7 33.0 21.4 46 9.0 NNW 32 37 17 20 1006.2 1006.1 0.0
22/03:30pm 35.6 32.8 19.1 38 10.9 NNW 32 37 17 20 1006.0 1005.9 0.0
22/03:00pm 40.2 37.7 17.0 25 15.1 NW 26 35 14 19 1006.0 1005.9 0.0
22/02:30pm 40.3 37.4 15.2 23 15.9 NW 24 33 13 18 1006.3 1006.2 0.0
22/02:00pm 40.7 36.9 14.8 22 16.4 NW 28 37 15 20 1006.7 1006.6 0.0
22/01:30pm 40.2 36.7 14.4 22 16.2 NW 26 37 14 20 1007.2 1007.1 0.0
22/01:00pm 40.0 37.4 14.9 22 15.9 WNW 22 30 12 16 1007.7 1007.7 0.0
22/12:30pm 40.0 38.6 15.6 24 15.6 WNW 17 22 9 12 1008.2 1008.2 0.0
22/12:00pm 38.9 37.9 17.6 28 13.9 WNW 19 26 10 14 1008.6 1008.6 0.0
22/11:30am 38.7 37.9 15.1 24 14.9 SW 13 19 7 10 1009.1 1009.1 0.0
22/11:00am 38.2 37.7 17.0 28 13.7 W 15 22 8 12 1009.5 1009.5 0.0
22/10:30am 37.2 36.8 16.2 29 13.4 SSW 13 20 7 11 1010.0 1010.0 0.0
22/10:00am 37.0 35.7 13.7 25 14.4 W 13 20 7 11 1010.5 1010.5 0.0
22/09:30am 35.5 36.5 17.7 35 11.5 SW 9 15 5 8 1010.7 1010.7 0.0
22/09:00am 35.0 36.4 18.6 38 10.7 SSW 9 17 5 9 1010.8 1010.8 0.0
22/08:30am 34.5 36.0 19.7 41 9.8 SW 11 13 6 7 1011.1 1011.1 0.0
22/08:00am 33.0 34.6 19.1 43 9.1 SSW 9 15 5 8 1011.0 1011.0 0.0
22/07:30am 32.5 35.3 19.7 46 8.4 WSW 4 7 2 4 1010.9 1010.9 0.0
22/07:00am 31.3 33.5 20.3 52 7.3 WSW 9 11 5 6 1010.5 1010.5 0.0
22/06:30am 30.7 34.4 22.6 62 5.5 S 7 11 4 6 1010.2 1010.2 0.0
22/06:00am 29.1 33.0 21.8 64 4.9 WSW 4 7 2 4 1009.9 1009.9 0.0
22/05:30am 28.8 32.7 21.8 66 4.7 W 4 6 2 3 1009.6 1009.6 0.0
22/05:00am 29.0 32.4 22.0 66 4.7 W 7 9 4 5 1009.2 1009.2 0.0
22/04:30am 29.1 32.5 21.6 64 5.0 NNW 6 7 3 4 1009.0 1009.0 0.0
22/04:00am 29.1 32.3 21.3 62 5.2 WNW 6 7 3 4 1008.6 1008.6 0.0
22/03:30am 29.5 32.7 21.2 61 5.5 NNW 6 7 3 4 1008.5 1008.5 0.0
22/03:00am 29.7 32.3 20.5 57 6.1 NW 7 7 4 4 1008.1 1008.1 0.0
22/02:30am 30.1 32.7 20.4 56 6.4 NNW 7 9 4 5 1008.0 1008.0 0.0
22/02:00am 30.3 32.8 21.1 58 6.2 NNW 9 11 5 6 1007.7 1007.7 0.0
22/01:30am 30.2 33.5 22.6 63 5.2 NNW 9 13 5 7 1007.6 1007.5 0.0
22/01:00am 30.2 33.6 23.4 67 4.7 NNW 11 15 6 8 1007.6 1007.5 0.0
22/12:30am 29.9 33.2 23.8 70 4.2 NNW 13 15 7 8 1007.8 1007.8 0.0
22/12:00am 29.6 33.4 24.0 72 3.9 N 11 15 6 8 1008.5 1008.5 0.0
 
Date/Time
WST
Temp
°C
App
Temp
°C
Dew
Point
Rel
Hum
%
Delta-T
°C
Wind Press
QNH
hPa
Press
MSL
hPa
Rain
since 9 am
mm
Dir
 
Spd
km/h
Gust
km/h
Spd
kts
Gust
kts
21/11:30pm 29.8 32.6 23.7 70 4.2 NNE 15 20 8 11 1008.7 1008.7 0.0
21/11:00pm 30.3 33.9 24.4 70 4.1 NNE 13 19 7 10 1008.9 1008.9 0.0
21/10:30pm 31.4 34.9 23.5 63 5.5 NW 11 15 6 8 1008.9 1008.9 0.0
21/10:00pm 31.4 35.5 25.7 71 4.1 N 15 19 8 10 1008.9 1008.9 0.0

Other Formats:

Comma delimited format used in spreadsheet applications
http://www.bom.gov.au/fwo/IDW60801/IDW60801.95205.axf

JavaScript Object Notation format (JSON) in row-major order
http://www.bom.gov.au/fwo/IDW60801/IDW60801.95205.json